createdAt,value
2022-11-05T00:00:36.113Z,10.70
2022-11-05T00:03:28.832Z,10.68
2022-11-05T00:06:15.369Z,10.62
2022-11-05T00:09:01.932Z,10.60
2022-11-05T00:11:45.017Z,10.60
2022-11-05T00:14:32.118Z,10.60
2022-11-05T00:17:00.624Z,10.52
2022-11-05T00:19:29.136Z,10.50
2022-11-05T00:22:15.981Z,10.50
2022-11-05T00:25:08.140Z,10.40
2022-11-05T00:27:36.715Z,10.40
2022-11-05T00:30:09.295Z,10.30
2022-11-05T00:32:38.384Z,10.30
2022-11-05T00:35:08.527Z,10.30
2022-11-05T00:37:36.954Z,10.22
2022-11-05T00:40:07.291Z,10.20
2022-11-05T00:42:53.714Z,10.20
2022-11-05T00:45:22.446Z,10.20
2022-11-05T00:48:09.390Z,10.20
2022-11-05T00:50:37.809Z,10.12
2022-11-05T00:53:06.836Z,10.10
2022-11-05T00:55:37.835Z,10.10
2022-11-05T00:58:08.056Z,10.10
2022-11-05T01:00:38.954Z,10.10
2022-11-05T01:03:08.876Z,10.10
2022-11-05T01:05:40.585Z,10.10
2022-11-05T01:08:09.313Z,10.10
2022-11-05T01:10:41.379Z,10.10
2022-11-05T01:13:13.230Z,10.10
2022-11-05T01:15:42.192Z,10.10
2022-11-05T01:18:10.731Z,10.08
2022-11-05T01:20:39.333Z,10.06
2022-11-05T01:23:13.183Z,10.00
2022-11-05T01:25:42.194Z,10.00
2022-11-05T01:28:10.774Z,10.02
2022-11-05T01:30:39.408Z,10.00
2022-11-05T01:33:08.039Z,10.00
2022-11-05T01:35:36.572Z,10.00
2022-11-05T01:38:04.970Z,10.00
2022-11-05T01:40:33.357Z,10.00
2022-11-05T01:43:01.678Z,10.00
2022-11-05T01:45:30.257Z,10.00
2022-11-05T01:48:07.194Z,10.00
2022-11-05T01:50:42.184Z,9.90
2022-11-05T01:53:19.457Z,9.90
2022-11-05T01:55:50.978Z,9.90
2022-11-05T01:58:22.580Z,9.80
2022-11-05T02:00:51.033Z,9.80
2022-11-05T02:03:19.656Z,9.70
2022-11-05T02:05:49.456Z,9.70
2022-11-05T02:08:24.830Z,9.60
2022-11-05T02:10:53.329Z,9.60
2022-11-05T02:13:21.736Z,9.60
2022-11-05T02:15:58.737Z,9.54
2022-11-05T02:18:34.833Z,9.50
2022-11-05T02:21:17.865Z,9.50
2022-11-05T02:24:01.828Z,9.50
2022-11-05T02:26:52.089Z,9.40
2022-11-05T02:29:52.674Z,9.42
2022-11-05T02:32:27.840Z,9.40
2022-11-05T02:35:03.854Z,9.40
2022-11-05T02:37:39.004Z,9.40
2022-11-05T02:40:14.728Z,9.40
2022-11-05T02:42:51.414Z,9.40
2022-11-05T02:45:31.443Z,9.40
2022-11-05T02:48:05.334Z,9.40
2022-11-05T02:50:37.454Z,9.40
2022-11-05T02:53:12.519Z,9.36
2022-11-05T02:55:45.010Z,9.34
2022-11-05T02:58:13.440Z,9.32
2022-11-05T03:00:48.749Z,9.34
2022-11-05T03:03:22.083Z,9.34
2022-11-05T03:06:23.344Z,9.30
2022-11-05T03:09:01.893Z,9.30
2022-11-05T03:11:32.737Z,9.30
2022-11-05T03:14:06.218Z,9.30
2022-11-05T03:16:39.263Z,9.30
2022-11-05T03:19:11.325Z,9.30
2022-11-05T03:21:43.464Z,9.30
2022-11-05T03:24:15.040Z,9.30
2022-11-05T03:26:46.447Z,9.30
2022-11-05T03:29:17.983Z,9.24
2022-11-05T03:31:47.410Z,9.20
2022-11-05T03:34:17.780Z,9.20
2022-11-05T03:36:50.924Z,9.20
2022-11-05T03:39:24.228Z,9.20
2022-11-05T03:41:54.476Z,9.20
2022-11-05T03:44:26.460Z,9.20
2022-11-05T03:47:00.540Z,9.20
2022-11-05T03:49:32.173Z,9.20
2022-11-05T03:52:04.185Z,9.20
2022-11-05T03:54:32.867Z,9.20
2022-11-05T03:57:05.294Z,9.20
2022-11-05T03:59:39.290Z,9.12
2022-11-05T04:02:07.819Z,9.10
2022-11-05T04:04:36.634Z,9.10
2022-11-05T04:07:23.658Z,9.10
2022-11-05T04:10:10.198Z,9.10
2022-11-05T04:12:57.061Z,9.10
2022-11-05T04:15:25.642Z,9.10
2022-11-05T04:17:55.019Z,9.10
2022-11-05T04:20:41.858Z,9.04
2022-11-05T04:23:28.972Z,9.04
2022-11-05T04:25:57.369Z,9.06
2022-11-05T04:28:45.972Z,9.00
2022-11-05T04:31:14.681Z,9.00
2022-11-05T04:33:43.086Z,9.00
2022-11-05T04:36:11.505Z,9.00
2022-11-05T04:38:40.296Z,9.00
2022-11-05T04:41:15.813Z,9.00
2022-11-05T04:43:44.677Z,9.06
2022-11-05T04:46:13.312Z,9.06
2022-11-05T04:48:41.908Z,9.02
2022-11-05T04:51:10.318Z,9.02
2022-11-05T04:53:38.757Z,9.00
2022-11-05T04:56:11.312Z,9.00
2022-11-05T04:58:42.994Z,9.00
2022-11-05T05:01:13.356Z,9.00
2022-11-05T05:03:42.275Z,9.00
2022-11-05T05:06:11.194Z,9.00
2022-11-05T05:08:39.717Z,9.00
2022-11-05T05:11:09.555Z,9.00
2022-11-05T05:13:38.295Z,9.00
2022-11-05T05:16:07.813Z,9.00
2022-11-05T05:18:36.285Z,9.00
2022-11-05T05:21:23.031Z,9.00
2022-11-05T05:23:51.665Z,9.00
2022-11-05T05:26:20.201Z,9.00
2022-11-05T05:28:48.604Z,9.00
2022-11-05T05:31:17.034Z,9.00
2022-11-05T05:33:45.617Z,9.00
2022-11-05T05:36:14.620Z,9.00
2022-11-05T05:38:43.004Z,9.00
2022-11-05T05:41:11.455Z,9.00
2022-11-05T05:43:39.965Z,9.00
2022-11-05T05:46:10.673Z,9.00
2022-11-05T05:48:39.079Z,9.00
2022-11-05T05:51:09.030Z,9.00
2022-11-05T05:53:38.091Z,9.00
2022-11-05T05:56:07.386Z,9.00
2022-11-05T05:58:37.890Z,9.00
2022-11-05T06:01:08.538Z,9.00
2022-11-05T06:03:37.172Z,9.00
2022-11-05T06:06:07.440Z,9.00
2022-11-05T06:08:36.110Z,9.00
2022-11-05T06:11:05.237Z,9.02
2022-11-05T06:13:34.335Z,9.06
2022-11-05T06:16:04.115Z,9.10
2022-11-05T06:18:33.688Z,9.10
2022-11-05T06:21:03.263Z,9.10
2022-11-05T06:23:32.053Z,9.10
2022-11-05T06:26:04.095Z,9.10
2022-11-05T06:28:33.313Z,9.16
2022-11-05T06:31:02.476Z,9.20
2022-11-05T06:33:31.910Z,9.20
2022-11-05T06:36:01.273Z,9.30
2022-11-05T06:38:31.878Z,9.30
2022-11-05T06:41:03.323Z,9.38
2022-11-05T06:43:34.360Z,9.40
2022-11-05T06:46:03.521Z,9.40
2022-11-05T06:48:33.195Z,9.40
2022-11-05T06:51:01.638Z,9.40
2022-11-05T06:53:30.155Z,9.48
2022-11-05T06:56:01.251Z,9.50
2022-11-05T06:58:30.409Z,9.50
2022-11-05T07:01:02.352Z,9.50
2022-11-05T07:03:31.101Z,9.50
2022-11-05T07:06:00.137Z,9.50
2022-11-05T07:08:30.045Z,9.50
2022-11-05T07:10:58.687Z,9.50
2022-11-05T07:13:27.168Z,9.50
2022-11-05T07:15:56.054Z,9.50
2022-11-05T07:18:24.533Z,9.50
2022-11-05T07:20:53.180Z,9.60
2022-11-05T07:23:21.632Z,9.60
2022-11-05T07:25:50.228Z,9.60
2022-11-05T07:28:18.637Z,9.60
2022-11-05T07:30:47.731Z,9.60
2022-11-05T07:33:16.181Z,9.60
2022-11-05T07:35:44.571Z,9.60
2022-11-05T07:38:12.971Z,9.60
2022-11-05T07:40:41.351Z,9.60
2022-11-05T07:43:10.319Z,9.60
2022-11-05T07:45:39.753Z,9.60
2022-11-05T07:48:09.303Z,9.70
2022-11-05T07:50:38.043Z,9.76
2022-11-05T07:53:07.936Z,9.80
2022-11-05T07:55:36.903Z,9.90
2022-11-05T07:58:05.341Z,10.00
2022-11-05T08:00:34.129Z,10.00
2022-11-05T08:03:08.169Z,10.10
2022-11-05T08:05:39.853Z,10.10
2022-11-05T08:08:09.073Z,10.20
2022-11-05T08:10:37.578Z,10.30
2022-11-05T08:13:06.687Z,10.36
2022-11-05T08:15:35.748Z,10.42
2022-11-05T08:18:05.771Z,10.52
2022-11-05T08:20:34.811Z,10.60
2022-11-05T08:23:03.184Z,10.70
2022-11-05T08:25:31.782Z,10.70
2022-11-05T08:28:01.712Z,10.78
2022-11-05T08:30:30.706Z,10.80
2022-11-05T08:33:00.009Z,10.80
2022-11-05T08:35:29.343Z,10.84
2022-11-05T08:37:58.918Z,10.90
2022-11-05T08:40:27.684Z,10.90
2022-11-05T08:42:58.153Z,10.96
2022-11-05T08:45:27.153Z,11.00
2022-11-05T08:48:00.563Z,11.02
2022-11-05T08:50:29.307Z,11.10
2022-11-05T08:52:58.824Z,11.10
2022-11-05T08:55:27.443Z,11.12
2022-11-05T08:57:59.413Z,11.10
2022-11-05T09:00:29.634Z,11.20
2022-11-05T09:03:00.591Z,11.20
2022-11-05T09:05:30.194Z,11.30
2022-11-05T09:08:01.397Z,11.30
2022-11-05T09:10:30.155Z,11.30
2022-11-05T09:12:58.579Z,11.40
2022-11-05T09:15:26.999Z,11.40
2022-11-05T09:17:56.021Z,11.50
2022-11-05T09:20:24.681Z,11.56
2022-11-05T09:22:53.531Z,11.60
2022-11-05T09:25:21.905Z,11.60
2022-11-05T09:27:50.459Z,11.60
2022-11-05T09:30:18.990Z,11.70
2022-11-05T09:32:47.723Z,11.70
2022-11-05T09:35:16.253Z,11.70
2022-11-05T09:37:44.663Z,11.70
2022-11-05T09:40:16.629Z,11.70
2022-11-05T09:42:46.352Z,11.78
2022-11-05T09:45:17.144Z,11.80
2022-11-05T09:47:48.582Z,11.80
2022-11-05T09:50:19.758Z,11.80
2022-11-05T09:52:48.238Z,11.88
2022-11-05T09:55:21.297Z,11.90
2022-11-05T09:57:52.890Z,12.00
2022-11-05T10:00:21.766Z,12.00
2022-11-05T10:02:52.029Z,12.00
2022-11-05T10:05:21.929Z,12.00
2022-11-05T10:07:53.414Z,12.00
2022-11-05T10:10:37.840Z,12.10
2022-11-05T10:13:19.302Z,12.10
2022-11-05T10:15:53.926Z,12.10
2022-11-05T10:18:25.891Z,12.10
2022-11-05T10:20:54.377Z,12.00
2022-11-05T10:23:23.164Z,12.00
2022-11-05T10:25:54.691Z,12.00
2022-11-05T10:28:25.768Z,12.00
2022-11-05T10:30:58.182Z,12.00
2022-11-05T10:33:32.789Z,12.04
2022-11-05T10:36:04.475Z,12.10
2022-11-05T10:38:32.917Z,12.20
2022-11-05T10:41:18.241Z,12.20
2022-11-05T10:43:49.393Z,12.30
2022-11-05T10:46:31.932Z,12.44
2022-11-05T10:49:18.042Z,12.60
2022-11-05T10:51:46.592Z,12.60
2022-11-05T10:54:19.085Z,12.60
2022-11-05T10:56:47.545Z,12.60
2022-11-05T10:59:23.923Z,12.70
2022-11-05T11:01:59.717Z,12.80
2022-11-05T11:04:32.360Z,12.90
2022-11-05T11:07:05.337Z,13.00
2022-11-05T11:09:36.546Z,13.00
2022-11-05T11:12:07.919Z,13.00
2022-11-05T11:14:36.314Z,13.10
2022-11-05T11:17:26.139Z,13.28
2022-11-05T11:20:09.130Z,13.40
2022-11-05T11:22:37.730Z,13.52
2022-11-05T11:25:23.012Z,13.40
2022-11-05T11:27:51.671Z,13.40
2022-11-05T11:30:20.606Z,13.40
2022-11-05T11:32:49.265Z,13.40
2022-11-05T11:35:22.133Z,13.50
2022-11-05T11:37:52.211Z,13.50
2022-11-05T11:40:22.760Z,13.30
2022-11-05T11:42:55.267Z,13.20
2022-11-05T11:45:27.460Z,13.18
2022-11-05T11:47:56.732Z,13.20
2022-11-05T11:50:39.289Z,13.20
2022-11-05T11:53:28.210Z,13.10
2022-11-05T11:56:05.549Z,13.00
2022-11-05T11:58:40.073Z,13.04
2022-11-05T12:01:18.438Z,13.00
2022-11-05T12:03:49.353Z,12.94
2022-11-05T12:06:24.878Z,12.90
2022-11-05T12:09:06.381Z,12.90
2022-11-05T12:11:39.334Z,13.00
2022-11-05T12:14:18.054Z,13.10
2022-11-05T12:17:03.030Z,13.30
2022-11-05T12:19:42.598Z,13.22
2022-11-05T12:22:19.145Z,13.20
2022-11-05T12:24:59.970Z,13.10
2022-11-05T12:27:39.670Z,13.20
2022-11-05T12:30:11.511Z,13.40
2022-11-05T12:32:58.704Z,13.64
2022-11-05T12:35:46.720Z,13.88
2022-11-05T12:38:24.627Z,13.90
2022-11-05T12:41:00.737Z,14.00
2022-11-05T12:43:39.361Z,14.10
2022-11-05T12:46:16.315Z,14.20
2022-11-05T12:49:03.073Z,14.20
2022-11-05T12:51:43.403Z,14.40
2022-11-05T12:54:19.751Z,14.60
2022-11-05T12:56:50.686Z,14.70
2022-11-05T12:59:22.038Z,14.80
2022-11-05T13:01:53.442Z,14.90
2022-11-05T13:04:31.707Z,14.94
2022-11-05T13:07:03.944Z,15.00
2022-11-05T13:09:35.019Z,14.80
2022-11-05T13:12:07.429Z,14.70
2022-11-05T13:14:41.494Z,14.60
2022-11-05T13:17:13.464Z,14.50
2022-11-05T13:19:46.576Z,14.20
2022-11-05T13:22:21.872Z,13.98
2022-11-05T13:24:53.555Z,13.76
2022-11-05T13:27:44.742Z,13.50
2022-11-05T13:30:17.837Z,13.20
2022-11-05T13:32:48.969Z,12.94
2022-11-05T13:35:21.314Z,12.80
2022-11-05T13:38:08.467Z,12.72
2022-11-05T13:40:44.091Z,12.70
2022-11-05T13:43:34.097Z,12.70
2022-11-05T13:46:11.792Z,12.70
2022-11-05T13:48:54.787Z,12.60
2022-11-05T13:51:46.040Z,12.44
2022-11-05T13:54:49.228Z,12.30
2022-11-05T13:57:36.187Z,12.10
2022-11-05T14:00:12.752Z,12.00
2022-11-05T14:02:44.162Z,11.86
2022-11-05T14:05:30.739Z,11.80
2022-11-05T14:08:07.693Z,11.70
2022-11-05T14:10:38.884Z,11.60
2022-11-05T14:13:17.462Z,11.60
2022-11-05T14:15:57.860Z,11.60
2022-11-05T14:18:44.170Z,11.50
2022-11-05T14:21:45.105Z,11.50
2022-11-05T14:24:42.898Z,11.50
2022-11-05T14:27:52.419Z,11.50
2022-11-05T14:30:41.287Z,11.40
2022-11-05T14:33:31.807Z,11.40
2022-11-05T14:36:29.710Z,11.40
2022-11-05T14:39:04.445Z,11.40
2022-11-05T14:41:50.978Z,11.40
2022-11-05T14:44:19.570Z,11.40
2022-11-05T14:46:50.375Z,11.30
2022-11-05T14:49:20.422Z,11.30
2022-11-05T14:51:49.936Z,11.30
2022-11-05T14:54:23.515Z,11.30
2022-11-05T14:56:56.524Z,11.30
2022-11-05T14:59:52.324Z,11.20
2022-11-05T15:02:24.843Z,11.10
2022-11-05T15:05:08.611Z,11.00
2022-11-05T15:07:38.392Z,10.90
2022-11-05T15:10:12.202Z,10.80
2022-11-05T15:12:44.638Z,10.70
2022-11-05T15:15:22.330Z,10.60
2022-11-05T15:18:00.082Z,10.50
2022-11-05T15:20:39.760Z,10.40
2022-11-05T15:23:12.841Z,10.40
2022-11-05T15:25:50.313Z,10.30
2022-11-05T15:28:27.591Z,10.20
2022-11-05T15:31:01.150Z,10.20
2022-11-05T15:33:30.405Z,10.10
2022-11-05T15:36:11.564Z,10.06
2022-11-05T15:38:56.668Z,10.00
2022-11-05T15:41:34.024Z,9.90
2022-11-05T15:44:02.539Z,9.90
2022-11-05T15:46:31.059Z,9.80
2022-11-05T15:49:06.499Z,9.80
2022-11-05T15:51:35.602Z,9.70
2022-11-05T15:56:56.419Z,9.60
2022-11-05T15:59:26.350Z,9.50
2022-11-05T16:01:56.760Z,9.50
2022-11-05T16:04:27.274Z,9.42
2022-11-05T16:06:58.949Z,9.40
2022-11-05T16:09:28.579Z,9.40
2022-11-05T16:12:27.555Z,9.40
2022-11-05T16:15:03.263Z,9.40
2022-11-05T16:17:45.354Z,9.40
2022-11-05T16:20:24.191Z,9.34
2022-11-05T16:22:54.528Z,9.30
2022-11-05T16:25:26.935Z,9.28
2022-11-05T16:27:55.457Z,9.20
2022-11-05T16:30:24.896Z,9.20
2022-11-05T16:32:53.702Z,9.10
2022-11-05T16:35:23.791Z,9.10
2022-11-05T16:37:52.738Z,9.04
2022-11-05T16:40:23.258Z,9.00
2022-11-05T16:42:52.290Z,9.00
2022-11-05T16:45:23.847Z,9.00
2022-11-05T16:47:52.563Z,9.00
2022-11-05T16:50:26.023Z,9.00
2022-11-05T16:52:54.531Z,9.00
2022-11-05T16:55:23.027Z,9.00
2022-11-05T16:57:52.933Z,9.00
2022-11-05T17:00:22.651Z,9.00
2022-11-05T17:02:51.561Z,9.00
2022-11-05T17:05:23.617Z,9.00
2022-11-05T17:07:52.669Z,9.00
2022-11-05T17:10:22.205Z,9.00
2022-11-05T17:12:51.119Z,9.00
2022-11-05T17:15:22.446Z,9.00
2022-11-05T17:17:51.415Z,9.00
2022-11-05T17:20:39.529Z,9.00
2022-11-05T17:23:10.720Z,8.90
2022-11-05T17:25:39.955Z,8.90
2022-11-05T17:28:09.551Z,8.90
2022-11-05T17:30:41.237Z,8.80
2022-11-05T17:33:11.260Z,8.80
2022-11-05T17:35:41.297Z,8.78
2022-11-05T17:38:10.113Z,8.74
2022-11-05T17:40:38.675Z,8.70
2022-11-05T17:43:07.680Z,8.70
2022-11-05T17:45:41.564Z,8.70
2022-11-05T17:48:10.160Z,8.70
2022-11-05T17:50:41.868Z,8.70
2022-11-05T17:53:10.810Z,8.70
2022-11-05T17:55:41.302Z,8.70
2022-11-05T17:58:10.061Z,8.60
2022-11-05T18:00:39.162Z,8.60
2022-11-05T18:03:07.614Z,8.50
2022-11-05T18:05:37.366Z,8.50
2022-11-05T18:08:06.707Z,8.44
2022-11-05T18:10:37.303Z,8.40
2022-11-05T18:13:05.840Z,8.30
2022-11-05T18:15:35.830Z,8.30
2022-11-05T18:18:04.515Z,8.20
2022-11-05T18:20:33.478Z,8.20
2022-11-05T18:23:02.023Z,8.10
2022-11-05T18:25:30.563Z,8.10
2022-11-05T18:27:59.111Z,8.00
2022-11-05T18:30:27.603Z,7.96
2022-11-05T18:32:56.170Z,7.90
2022-11-05T18:35:24.574Z,7.90
2022-11-05T18:37:53.013Z,7.80
2022-11-05T18:40:21.432Z,7.78
2022-11-05T18:42:50.262Z,7.70
2022-11-05T18:45:18.735Z,7.62
2022-11-05T18:47:47.169Z,7.60
2022-11-05T18:50:15.731Z,7.50
2022-11-05T18:52:44.548Z,7.50
2022-11-05T18:55:12.987Z,7.40
2022-11-05T18:57:41.414Z,7.40
2022-11-05T19:00:12.510Z,7.40
2022-11-05T19:02:41.173Z,7.30
2022-11-05T19:07:58.950Z,7.30
2022-11-05T19:10:27.649Z,7.30
2022-11-05T19:12:56.198Z,7.40
2022-11-05T19:15:24.683Z,7.40
2022-11-05T19:17:53.241Z,7.40
2022-11-05T19:20:21.698Z,7.40
2022-11-05T19:22:50.195Z,7.40
2022-11-05T19:25:18.844Z,7.40
2022-11-05T19:27:47.354Z,7.40
2022-11-05T19:30:15.949Z,7.40
2022-11-05T19:32:44.327Z,7.32
2022-11-05T19:35:12.804Z,7.30
2022-11-05T19:37:41.170Z,7.28
2022-11-05T19:40:11.556Z,7.20
2022-11-05T19:42:39.985Z,7.18
2022-11-05T19:45:38.131Z,7.10
2022-11-05T19:47:58.863Z,7.10
2022-11-05T19:50:27.787Z,7.10
2022-11-05T19:52:56.407Z,7.00
2022-11-05T19:55:24.931Z,7.00
2022-11-05T19:57:53.421Z,7.00
2022-11-05T20:00:22.064Z,6.90
2022-11-05T20:02:50.634Z,6.90
2022-11-05T20:05:19.248Z,6.82
2022-11-05T20:07:52.562Z,6.80
2022-11-05T20:10:21.652Z,6.80
2022-11-05T20:12:50.135Z,6.70
2022-11-05T20:15:19.195Z,6.70
2022-11-05T20:17:50.611Z,6.60
2022-11-05T20:20:19.404Z,6.60
2022-11-05T20:22:47.792Z,6.50
2022-11-05T20:25:16.482Z,6.50
2022-11-05T20:27:44.948Z,6.40
2022-11-05T20:30:13.738Z,6.40
2022-11-05T20:32:42.189Z,6.40
2022-11-05T20:35:11.123Z,6.40
2022-11-05T20:37:39.684Z,6.40
2022-11-05T20:40:10.306Z,6.30
2022-11-05T20:42:38.817Z,6.30
2022-11-05T20:45:08.776Z,6.30
2022-11-05T20:47:37.424Z,6.28
2022-11-05T20:50:08.705Z,6.24
2022-11-05T20:52:37.171Z,6.20
2022-11-05T20:55:08.630Z,6.20
2022-11-05T20:57:37.920Z,6.26
2022-11-05T21:00:08.569Z,6.30
2022-11-05T21:02:38.909Z,6.30
2022-11-05T21:05:08.774Z,6.30
2022-11-05T21:07:37.237Z,6.30
2022-11-05T21:10:07.244Z,6.30
2022-11-05T21:12:36.004Z,6.30
2022-11-05T21:15:05.571Z,6.22
2022-11-05T21:17:33.988Z,6.20
2022-11-05T21:20:02.777Z,6.20
2022-11-05T21:22:31.353Z,6.10
2022-11-05T21:24:59.726Z,6.10
2022-11-05T21:27:28.321Z,6.00
2022-11-05T21:29:56.760Z,6.00
2022-11-05T21:32:25.255Z,5.90
2022-11-05T21:34:53.719Z,5.90
2022-11-05T21:37:22.200Z,5.80
2022-11-05T21:39:50.900Z,5.80
2022-11-05T21:42:19.327Z,5.72
2022-11-05T21:44:47.749Z,5.70
2022-11-05T21:47:16.222Z,5.70
2022-11-05T21:49:44.763Z,5.70
2022-11-05T21:52:31.661Z,5.70
2022-11-05T21:55:18.359Z,5.60
2022-11-05T21:58:04.832Z,5.60
2022-11-05T22:00:33.318Z,5.60
2022-11-05T22:03:01.872Z,5.50
2022-11-05T22:05:30.399Z,5.50
2022-11-05T22:07:58.988Z,5.50
2022-11-05T22:10:27.401Z,5.50
2022-11-05T22:12:55.919Z,5.60
2022-11-05T22:15:24.407Z,5.60
2022-11-05T22:17:52.827Z,5.60
2022-11-05T22:20:21.170Z,5.60
2022-11-05T22:22:49.682Z,5.60
2022-11-05T22:25:18.393Z,5.60
2022-11-05T22:27:46.905Z,5.60
2022-11-05T22:30:15.689Z,5.60
2022-11-05T22:32:45.621Z,5.58
2022-11-05T22:35:14.114Z,5.50
2022-11-05T22:37:42.519Z,5.50
2022-11-05T22:40:11.466Z,5.46
2022-11-05T22:42:39.945Z,5.40
2022-11-05T22:45:09.948Z,5.30
2022-11-05T22:47:40.786Z,5.30
2022-11-05T22:50:10.252Z,5.20
2022-11-05T22:52:38.658Z,5.20
2022-11-05T22:55:08.453Z,5.20
2022-11-05T22:57:36.823Z,5.20
2022-11-05T23:00:14.859Z,5.12
2022-11-05T23:02:43.830Z,5.10
2022-11-05T23:05:12.432Z,5.10
2022-11-05T23:07:59.347Z,5.00
2022-11-05T23:10:45.679Z,5.00
2022-11-05T23:13:14.125Z,4.92
2022-11-05T23:16:00.808Z,4.90
2022-11-05T23:18:47.563Z,4.90
2022-11-05T23:21:34.341Z,4.88
2022-11-05T23:24:05.817Z,4.90
2022-11-05T23:26:58.837Z,4.90
2022-11-05T23:29:27.643Z,4.90
2022-11-05T23:32:14.412Z,4.90
2022-11-05T23:34:43.003Z,4.90
2022-11-05T23:37:29.474Z,4.90
2022-11-05T23:39:57.968Z,4.90
2022-11-05T23:42:44.546Z,4.90
2022-11-05T23:45:31.035Z,4.90
2022-11-05T23:48:17.317Z,4.90
2022-11-05T23:50:49.290Z,4.90
2022-11-05T23:53:17.981Z,4.84
2022-11-05T23:55:46.417Z,4.80
2022-11-05T23:58:15.319Z,4.80
